Time;durP1;ratioP1;P1;durP2;ratioP2;P2;SDS_P1;SDS_P2;PMS_P1;PMS_P2;Temp;Humidity;BMP_temperature;BMP_pressure;BME280_temperature;BME280_humidity;BME280_pressure;Samples;Min_cycle;Max_cycle;Signal;HPM_P1;HPM_P2
2021/10/22 00:00:05;;;;;;;22.35;3.42;;;;;;;;;;5050935;28;20372;-84
2021/10/22 00:02:30;;;;;;;26.45;3.30;;;;;;;;;;5033168;28;20032;-86
2021/10/22 00:04:55;;;;;;;24.42;3.95;;;;;;;;;;5053191;28;20024;-85
2021/10/22 00:07:21;;;;;;;19.75;3.25;;;;;;;;;;5053954;28;20028;-85
2021/10/22 00:09:46;;;;;;;31.95;3.28;;;;;;;;;;5054811;28;20033;-86
2021/10/22 00:12:12;;;;;;;26.67;4.15;;;;;;;;;;5053892;28;20017;-85
2021/10/22 00:14:37;;;;;;;16.60;3.40;;;;;;;;;;5064395;28;20047;-85
2021/10/22 00:17:02;;;;;;;22.33;3.40;;;;;;;;;;5070109;22;20440;-68
2021/10/22 00:19:27;;;;;;;23.38;5.72;;;;;;;;;;5036370;28;20025;-68
2021/10/22 00:21:52;;;;;;;23.83;4.85;;;;;;;;;;5035304;28;20013;-67
2021/10/22 00:24:18;;;;;;;33.00;4.75;;;;;;;;;;5047768;28;20469;-68
2021/10/22 00:26:43;;;;;;;20.17;4.07;;;;;;;;;;5051205;28;20033;-69
2021/10/22 00:29:08;;;;;;;23.15;4.10;;;;;;;;;;5050379;28;20359;-70
2021/10/22 00:31:33;;;;;;;23.48;4.53;;;;;;;;;;5040090;28;20025;-71
2021/10/22 00:33:58;;;;;;;27.65;4.60;;;;;;;;;;5048381;28;20075;-70
2021/10/22 00:36:24;;;;;;;23.65;5.65;;;;;;;;;;5037812;28;20021;-70
2021/10/22 00:38:49;;;;;;;26.77;5.82;;;;;;;;;;5043686;28;20029;-70
2021/10/22 00:41:17;;;;;;;27.38;5.10;;;;;;;;;;5050805;28;20017;-70
2021/10/22 00:43:42;;;;;;;29.50;5.40;;;;;;;;;;5056557;28;20013;-71
2021/10/22 00:46:07;;;;;;;24.73;5.82;;;;;;;;;;5042004;28;20032;-72
2021/10/22 00:48:35;;;;;;;30.45;5.20;;;;;;;;;;5046769;28;20025;-70
2021/10/22 00:51:00;;;;;;;31.48;6.53;;;;;;;;;;5052090;28;20022;-70
2021/10/22 00:53:26;;;;;;;31.50;7.13;;;;;;;;;;5071109;28;20028;-70
2021/10/22 00:55:52;;;;;;;31.13;7.82;;;;;;;;;;5038984;28;20017;-70
2021/10/22 00:58:17;;;;;;;29.80;6.88;;;;;;;;;;5054411;28;20032;-70
2021/10/22 01:00:42;;;;;;;25.58;6.10;;;;;;;;;;5072980;28;20028;-73
2021/10/22 01:03:09;;;;;;;30.25;6.03;;;;;;;;;;5064359;28;20489;-70
2021/10/22 01:05:34;;;;;;;36.83;6.70;;;;;;;;;;5063668;28;20021;-70
2021/10/22 01:07:59;;;;;;;23.83;5.28;;;;;;;;;;5062324;28;20384;-72
2021/10/22 01:10:25;;;;;;;26.77;5.00;;;;;;;;;;5054221;28;20023;-70
2021/10/22 01:12:50;;;;;;;28.65;4.95;;;;;;;;;;5072239;28;20404;-70
2021/10/22 01:15:15;;;;;;;22.77;5.22;;;;;;;;;;5062591;28;20103;-71
2021/10/22 01:17:45;;;;;;;21.38;3.83;;;;;;;;;;5052143;28;20404;-69
2021/10/22 01:20:12;;;;;;;16.23;3.60;;;;;;;;;;5052951;28;20029;-67
2021/10/22 01:22:38;;;;;;;23.45;3.97;;;;;;;;;;5055940;28;20024;-68
2021/10/22 01:25:05;;;;;;;15.65;2.67;;;;;;;;;;5064281;28;20029;-67
2021/10/22 01:27:30;;;;;;;18.85;2.90;;;;;;;;;;5062775;28;20072;-67
2021/10/22 01:29:55;;;;;;;20.95;3.92;;;;;;;;;;5072487;28;20044;-68
2021/10/22 01:32:21;;;;;;;22.48;3.70;;;;;;;;;;5054774;28;20021;-67
2021/10/22 01:34:46;;;;;;;20.08;3.17;;;;;;;;;;5059207;28;20073;-67
2021/10/22 01:37:11;;;;;;;14.80;3.25;;;;;;;;;;5057622;28;20025;-69
2021/10/22 01:39:37;;;;;;;29.73;3.80;;;;;;;;;;5066120;28;20404;-67
2021/10/22 01:42:03;;;;;;;13.48;4.57;;;;;;;;;;5066020;28;20396;-68
2021/10/22 01:44:28;;;;;;;20.50;4.28;;;;;;;;;;5069203;28;20021;-69
2021/10/22 01:46:53;;;;;;;17.48;4.15;;;;;;;;;;5059962;28;20481;-67
2021/10/22 01:49:18;;;;;;;21.10;4.22;;;;;;;;;;5053327;28;20106;-68
2021/10/22 01:51:44;;;;;;;26.98;5.03;;;;;;;;;;5052004;28;20017;-68
2021/10/22 01:54:09;;;;;;;27.52;5.00;;;;;;;;;;5062486;28;20017;-68
2021/10/22 01:56:35;;;;;;;21.75;4.07;;;;;;;;;;5053069;28;20428;-68
2021/10/22 01:59:00;;;;;;;30.60;4.68;;;;;;;;;;5051959;28;20021;-68
2021/10/22 02:01:25;;;;;;;22.35;4.68;;;;;;;;;;5052113;28;20022;-69
2021/10/22 02:03:51;;;;;;;14.27;3.80;;;;;;;;;;5052626;28;20021;-68
2021/10/22 02:06:16;;;;;;;18.30;4.05;;;;;;;;;;5051692;28;20017;-68
2021/10/22 02:08:41;;;;;;;16.30;2.75;;;;;;;;;;5059076;28;20477;-68
2021/10/22 02:11:06;;;;;;;23.15;3.28;;;;;;;;;;5061799;28;20431;-68
2021/10/22 02:13:31;;;;;;;21.10;3.50;;;;;;;;;;5055200;28;20025;-68
2021/10/22 02:15:57;;;;;;;21.63;3.03;;;;;;;;;;5051629;28;20016;-68
2021/10/22 02:18:22;;;;;;;22.45;3.78;;;;;;;;;;5059683;28;20090;-68
2021/10/22 02:20:48;;;;;;;16.92;4.10;;;;;;;;;;5059814;28;20448;-68
2021/10/22 02:23:13;;;;;;;16.50;3.25;;;;;;;;;;5052436;28;20049;-70
2021/10/22 02:25:38;;;;;;;19.07;3.10;;;;;;;;;;5062798;28;20024;-68
2021/10/22 02:28:03;;;;;;;12.40;2.22;;;;;;;;;;5051598;28;20759;-69
2021/10/22 02:30:28;;;;;;;12.90;2.80;;;;;;;;;;5051405;28;20103;-68
2021/10/22 02:32:54;;;;;;;28.75;6.50;;;;;;;;;;5057395;28;20021;-70
2021/10/22 02:35:19;;;;;;;22.70;2.97;;;;;;;;;;5071002;28;20013;-69
2021/10/22 02:37:45;;;;;;;23.85;3.33;;;;;;;;;;5066472;28;20035;-69
2021/10/22 02:40:11;;;;;;;21.98;3.35;;;;;;;;;;5061449;28;20032;-69
2021/10/22 02:42:37;;;;;;;16.42;3.33;;;;;;;;;;5051391;28;20021;-69
2021/10/22 02:45:02;;;;;;;18.88;3.40;;;;;;;;;;5060702;28;20465;-69
2021/10/22 02:47:27;;;;;;;29.25;3.17;;;;;;;;;;5050228;28;20033;-68
2021/10/22 02:49:53;;;;;;;19.60;2.72;;;;;;;;;;5058225;28;20067;-68
2021/10/22 02:52:18;;;;;;;24.33;3.22;;;;;;;;;;5069530;28;20013;-69
2021/10/22 02:54:43;;;;;;;12.23;2.92;;;;;;;;;;5065414;28;20477;-70
2021/10/22 02:57:09;;;;;;;32.00;4.65;;;;;;;;;;5069435;28;20016;-68
2021/10/22 02:59:34;;;;;;;20.13;3.30;;;;;;;;;;5051058;28;20029;-70
2021/10/22 03:01:59;;;;;;;23.15;3.85;;;;;;;;;;5053765;28;20605;-68
2021/10/22 03:04:24;;;;;;;25.50;3.83;;;;;;;;;;5064058;28;20024;-70
2021/10/22 03:06:49;;;;;;;18.67;3.38;;;;;;;;;;5056026;28;20029;-68
2021/10/22 03:09:15;;;;;;;23.83;2.92;;;;;;;;;;5051877;28;20461;-71
2021/10/22 03:11:40;;;;;;;17.30;3.72;;;;;;;;;;5070670;28;20020;-68
2021/10/22 03:14:05;;;;;;;18.50;3.05;;;;;;;;;;5063963;28;20142;-69
2021/10/22 03:16:30;;;;;;;21.00;3.55;;;;;;;;;;5070613;28;20392;-68
2021/10/22 03:18:55;;;;;;;16.27;3.72;;;;;;;;;;5036657;28;20029;-70
2021/10/22 03:21:22;;;;;;;19.37;3.83;;;;;;;;;;5059489;28;20020;-68
2021/10/22 03:23:47;;;;;;;21.45;3.40;;;;;;;;;;5066197;28;20262;-68
2021/10/22 03:26:13;;;;;;;14.32;2.78;;;;;;;;;;5070120;28;20372;-68
2021/10/22 03:28:38;;;;;;;33.72;3.35;;;;;;;;;;5063737;28;20048;-68
2021/10/22 03:31:03;;;;;;;22.50;3.00;;;;;;;;;;5049177;28;20462;-69
2021/10/22 03:33:28;;;;;;;24.50;3.28;;;;;;;;;;5058129;28;20036;-68
2021/10/22 03:35:53;;;;;;;22.35;3.28;;;;;;;;;;5060705;28;20056;-68
2021/10/22 03:38:19;;;;;;;23.35;3.95;;;;;;;;;;5050264;28;20021;-68
2021/10/22 03:40:44;;;;;;;18.65;3.55;;;;;;;;;;5032607;28;20131;-69
2021/10/22 03:43:09;;;;;;;21.05;3.53;;;;;;;;;;5041479;28;20512;-68
2021/10/22 03:45:34;;;;;;;23.75;4.03;;;;;;;;;;5064191;28;20044;-68
2021/10/22 03:47:59;;;;;;;24.45;3.05;;;;;;;;;;5062312;28;20082;-68
2021/10/22 03:50:25;;;;;;;22.52;3.10;;;;;;;;;;5065578;28;20013;-69
2021/10/22 03:52:51;;;;;;;20.88;3.22;;;;;;;;;;5056823;28;20504;-70
2021/10/22 03:55:16;;;;;;;14.90;3.65;;;;;;;;;;5051342;28;20378;-70
2021/10/22 03:57:41;;;;;;;19.08;2.83;;;;;;;;;;5033050;28;20270;-68
2021/10/22 04:00:07;;;;;;;20.40;2.80;;;;;;;;;;5049978;28;20478;-70
2021/10/22 04:02:32;;;;;;;15.48;3.10;;;;;;;;;;5049720;28;20020;-69
2021/10/22 04:04:58;;;;;;;13.52;2.50;;;;;;;;;;5050261;28;20108;-67
2021/10/22 04:07:23;;;;;;;21.90;3.17;;;;;;;;;;5068852;28;20020;-68
2021/10/22 04:09:48;;;;;;;21.05;3.28;;;;;;;;;;5055174;28;20023;-67
2021/10/22 04:12:14;;;;;;;26.27;3.33;;;;;;;;;;5049730;28;20021;-68
2021/10/22 04:14:39;;;;;;;11.18;2.67;;;;;;;;;;5050900;28;20032;-69
2021/10/22 04:17:04;;;;;;;20.15;3.55;;;;;;;;;;5049829;28;20083;-68
2021/10/22 04:19:30;;;;;;;13.45;3.00;;;;;;;;;;5067294;28;20443;-68
2021/10/22 04:21:55;;;;;;;24.55;3.55;;;;;;;;;;5054747;28;20028;-68
2021/10/22 04:24:20;;;;;;;8.23;1.65;;;;;;;;;;5050083;28;20029;-68
2021/10/22 04:26:46;;;;;;;14.68;2.90;;;;;;;;;;5069485;28;20016;-70
2021/10/22 04:29:12;;;;;;;29.58;3.28;;;;;;;;;;5062155;28;20028;-68
2021/10/22 04:31:37;;;;;;;19.13;2.92;;;;;;;;;;5049679;28;20028;-68
2021/10/22 04:34:02;;;;;;;8.15;2.78;;;;;;;;;;5049819;28;20032;-69
2021/10/22 04:36:28;;;;;;;25.15;4.30;;;;;;;;;;5063384;28;20020;-72
2021/10/22 04:41:37;;;;;;;19.83;3.95;;;;;;;;;;5067519;28;20081;-69
2021/10/22 04:44:02;;;;;;;18.67;3.20;;;;;;;;;;5063899;28;20036;-71
2021/10/22 04:46:28;;;;;;;22.10;2.85;;;;;;;;;;5069053;28;20039;-68
2021/10/22 04:48:53;;;;;;;14.73;3.95;;;;;;;;;;5053416;28;20029;-69
2021/10/22 04:51:18;;;;;;;18.33;3.85;;;;;;;;;;5053166;28;20059;-68
2021/10/22 04:53:43;;;;;;;19.33;3.67;;;;;;;;;;5053236;28;20017;-69
2021/10/22 04:56:09;;;;;;;18.88;4.40;;;;;;;;;;5065704;28;20081;-70
2021/10/22 04:58:34;;;;;;;18.17;3.85;;;;;;;;;;5072953;28;20028;-69
2021/10/22 05:00:59;;;;;;;21.58;3.47;;;;;;;;;;5052989;28;20024;-69
2021/10/22 05:03:26;;;;;;;20.85;4.07;;;;;;;;;;5052819;28;20036;-69
2021/10/22 05:05:51;;;;;;;13.88;2.80;;;;;;;;;;5045984;28;20405;-69
2021/10/22 05:08:16;;;;;;;22.42;2.95;;;;;;;;;;5050019;28;20024;-70
2021/10/22 05:10:41;;;;;;;17.17;4.22;;;;;;;;;;5049905;28;20017;-69
2021/10/22 05:13:07;;;;;;;20.48;3.63;;;;;;;;;;5049349;28;20055;-69
2021/10/22 05:15:32;;;;;;;18.75;3.63;;;;;;;;;;5050832;28;20021;-68
2021/10/22 05:17:57;;;;;;;19.85;3.28;;;;;;;;;;5050290;28;20044;-69
2021/10/22 05:20:22;;;;;;;10.60;3.08;;;;;;;;;;5050235;28;20032;-69
2021/10/22 05:22:47;;;;;;;19.65;1.75;;;;;;;;;;5050185;28;20036;-69
2021/10/22 05:25:14;;;;;;;23.65;3.55;;;;;;;;;;5048553;28;20099;-68
2021/10/22 05:27:40;;;;;;;26.63;5.15;;;;;;;;;;5050033;28;20025;-70
2021/10/22 05:30:06;;;;;;;25.77;6.10;;;;;;;;;;5047760;28;20027;-69
2021/10/22 05:32:31;;;;;;;18.17;4.30;;;;;;;;;;5048180;28;20039;-69
2021/10/22 05:34:56;;;;;;;20.00;3.90;;;;;;;;;;5036344;28;20474;-69
2021/10/22 05:37:21;;;;;;;20.70;5.13;;;;;;;;;;5072755;22;20067;-67
2021/10/22 05:39:47;;;;;;;24.55;4.53;;;;;;;;;;5070134;28;20013;-66
2021/10/22 05:42:12;;;;;;;30.42;4.57;;;;;;;;;;5070588;28;20179;-65
2021/10/22 05:44:37;;;;;;;17.85;5.30;;;;;;;;;;5070018;28;20031;-67
2021/10/22 05:47:03;;;;;;;24.25;5.60;;;;;;;;;;5065706;28;20115;-64
2021/10/22 05:49:28;;;;;;;26.38;5.60;;;;;;;;;;5068935;28;20023;-67
2021/10/22 05:51:53;;;;;;;22.75;4.88;;;;;;;;;;5069151;28;20052;-66
2021/10/22 05:54:19;;;;;;;23.17;5.53;;;;;;;;;;5069290;28;20016;-67
2021/10/22 05:56:44;;;;;;;18.88;5.03;;;;;;;;;;5066067;28;20399;-66
2021/10/22 05:59:09;;;;;;;17.48;4.28;;;;;;;;;;5068797;28;20472;-67
2021/10/22 06:01:35;;;;;;;28.40;4.80;;;;;;;;;;5067861;28;20024;-67
2021/10/22 06:04:00;;;;;;;22.13;4.35;;;;;;;;;;5071544;28;20020;-67
2021/10/22 06:06:25;;;;;;;21.30;4.03;;;;;;;;;;5072799;28;20024;-65
2021/10/22 06:08:51;;;;;;;18.60;3.53;;;;;;;;;;5078416;28;20392;-67
2021/10/22 06:11:16;;;;;;;10.20;3.15;;;;;;;;;;5074661;28;20024;-66
2021/10/22 06:13:42;;;;;;;20.52;4.43;;;;;;;;;;5075716;28;20029;-65
2021/10/22 06:16:08;;;;;;;12.32;3.15;;;;;;;;;;5078808;28;20009;-66
2021/10/22 06:18:34;;;;;;;17.33;3.70;;;;;;;;;;5051592;28;20472;-68
2021/10/22 06:21:04;;;;;;;14.98;2.88;;;;;;;;;;5071434;28;20028;-68
2021/10/22 06:26:13;;;;;;;14.57;2.45;;;;;;;;;;5072182;28;20027;-65
2021/10/22 06:28:38;;;;;;;21.45;4.47;;;;;;;;;;5070764;28;20099;-63
2021/10/22 06:31:03;;;;;;;18.80;3.42;;;;;;;;;;5080773;28;20484;-63
2021/10/22 06:33:28;;;;;;;13.52;2.80;;;;;;;;;;5074050;28;20029;-64
2021/10/22 06:35:54;;;;;;;15.27;3.47;;;;;;;;;;5071180;28;20020;-65
2021/10/22 06:38:20;;;;;;;16.65;3.67;;;;;;;;;;5072080;28;20032;-65
2021/10/22 06:40:45;;;;;;;30.73;3.67;;;;;;;;;;5069865;28;20090;-65
2021/10/22 06:43:11;;;;;;;19.42;2.35;;;;;;;;;;5079097;28;20017;-63
2021/10/22 06:45:36;;;;;;;19.83;3.63;;;;;;;;;;5071123;28;20028;-66
2021/10/22 06:48:02;;;;;;;19.20;3.47;;;;;;;;;;5074370;28;20110;-62
2021/10/22 06:50:27;;;;;;;14.50;3.33;;;;;;;;;;5082159;28;20061;-62
2021/10/22 06:52:52;;;;;;;15.90;3.20;;;;;;;;;;5071379;28;20476;-64
2021/10/22 06:55:18;;;;;;;14.68;3.63;;;;;;;;;;5070973;28;20024;-65
2021/10/22 06:57:43;;;;;;;15.65;2.70;;;;;;;;;;5071996;28;20024;-64
2021/10/22 07:00:09;;;;;;;19.95;4.15;;;;;;;;;;5074746;28;20502;-64
2021/10/22 07:02:45;;;;;;;9.60;2.90;;;;;;;;;;5090826;28;20140;-65
2021/10/22 07:05:22;;;;;;;19.02;3.40;;;;;;;;;;5075869;28;20012;-65
2021/10/22 07:07:47;;;;;;;11.07;2.50;;;;;;;;;;5070100;28;20025;-65
2021/10/22 07:10:13;;;;;;;12.17;2.73;;;;;;;;;;5073291;28;20026;-64
2021/10/22 07:12:38;;;;;;;28.47;5.10;;;;;;;;;;5079250;28;20259;-64
2021/10/22 07:15:05;;;;;;;11.13;2.63;;;;;;;;;;5075071;28;20270;-65
2021/10/22 07:17:30;;;;;;;14.63;2.60;;;;;;;;;;5072208;28;20031;-63
2021/10/22 07:19:56;;;;;;;11.40;3.58;;;;;;;;;;5071898;28;20532;-65
2021/10/22 07:22:30;;;;;;;16.52;2.83;;;;;;;;;;5070197;28;20032;-64
2021/10/22 07:24:55;;;;;;;17.40;3.55;;;;;;;;;;5075947;28;20024;-65
2021/10/22 07:27:20;;;;;;;10.60;3.28;;;;;;;;;;5074890;28;20038;-67
2021/10/22 07:29:45;;;;;;;15.17;2.93;;;;;;;;;;5084115;28;20103;-65
2021/10/22 07:32:10;;;;;;;9.15;2.17;;;;;;;;;;5087915;28;20262;-65
2021/10/22 07:34:36;;;;;;;12.70;3.10;;;;;;;;;;5083496;28;20012;-65
2021/10/22 07:37:01;;;;;;;9.95;2.55;;;;;;;;;;5072348;28;20266;-66
2021/10/22 07:39:26;;;;;;;17.42;2.58;;;;;;;;;;5090053;28;20078;-65
2021/10/22 07:41:51;;;;;;;10.23;2.50;;;;;;;;;;5072272;28;20468;-66
2021/10/22 07:44:16;;;;;;;13.02;2.72;;;;;;;;;;5070037;28;20021;-64
2021/10/22 07:46:43;;;;;;;20.65;2.90;;;;;;;;;;5070231;28;20102;-66
2021/10/22 07:49:09;;;;;;;20.70;2.83;;;;;;;;;;5071328;28;20536;-66
2021/10/22 07:51:34;;;;;;;11.00;2.30;;;;;;;;;;5073178;28;20451;-66
2021/10/22 07:54:00;;;;;;;14.00;2.63;;;;;;;;;;5082994;28;20017;-64
2021/10/22 07:56:25;;;;;;;21.70;3.35;;;;;;;;;;5069621;28;20328;-63
2021/10/22 07:58:51;;;;;;;8.53;2.23;;;;;;;;;;5070350;28;20029;-65
2021/10/22 08:01:17;;;;;;;18.80;4.00;;;;;;;;;;5072047;28;20270;-66
2021/10/22 08:03:43;;;;;;;12.00;2.90;;;;;;;;;;5068994;28;20392;-64
2021/10/22 08:06:12;;;;;;;14.82;2.95;;;;;;;;;;5070005;28;20059;-64
2021/10/22 08:08:37;;;;;;;12.20;2.30;;;;;;;;;;5070949;28;20025;-64
2021/10/22 08:11:02;;;;;;;12.75;2.47;;;;;;;;;;5078996;28;20518;-63
2021/10/22 08:13:27;;;;;;;10.13;2.33;;;;;;;;;;5069475;28;20024;-65
2021/10/22 08:15:53;;;;;;;9.48;2.38;;;;;;;;;;5069963;28;20266;-64
2021/10/22 08:18:19;;;;;;;13.73;2.75;;;;;;;;;;5070100;28;20044;-64
2021/10/22 08:20:56;;;;;;;8.63;1.88;;;;;;;;;;5073378;28;20074;-64
2021/10/22 08:23:21;;;;;;;14.90;2.35;;;;;;;;;;5073074;28;20037;-65
2021/10/22 08:25:47;;;;;;;16.52;3.15;;;;;;;;;;5073138;28;20020;-63
2021/10/22 08:28:12;;;;;;;11.35;2.08;;;;;;;;;;5073081;28;20025;-64
2021/10/22 08:30:37;;;;;;;10.48;2.40;;;;;;;;;;5073556;28;20023;-63
2021/10/22 08:33:03;;;;;;;18.25;3.15;;;;;;;;;;5072591;28;20460;-62
2021/10/22 08:35:28;;;;;;;11.38;2.80;;;;;;;;;;5072928;28;20028;-64
2021/10/22 08:37:54;;;;;;;21.23;2.80;;;;;;;;;;5073437;28;20457;-62
2021/10/22 08:40:20;;;;;;;11.70;2.53;;;;;;;;;;5072860;28;20050;-62
2021/10/22 08:42:47;;;;;;;11.55;2.28;;;;;;;;;;5073026;28;20434;-63
2021/10/22 08:45:12;;;;;;;13.63;2.65;;;;;;;;;;5072533;28;20400;-62
2021/10/22 08:47:38;;;;;;;11.95;2.35;;;;;;;;;;5072603;28;20111;-64
2021/10/22 08:50:05;;;;;;;8.40;1.63;;;;;;;;;;5072473;28;20048;-64
2021/10/22 08:52:30;;;;;;;20.30;2.38;;;;;;;;;;5072970;28;20013;-65
2021/10/22 08:54:59;;;;;;;22.15;3.10;;;;;;;;;;5073320;28;20039;-65
2021/10/22 08:57:24;;;;;;;15.52;2.40;;;;;;;;;;5070940;28;20134;-65
2021/10/22 08:59:52;;;;;;;8.65;2.15;;;;;;;;;;5067642;28;20016;-65
2021/10/22 09:02:20;;;;;;;18.48;2.60;;;;;;;;;;5073690;28;20519;-63
2021/10/22 09:04:46;;;;;;;13.40;2.75;;;;;;;;;;5082971;28;20029;-68
2021/10/22 09:07:18;;;;;;;9.05;2.42;;;;;;;;;;5072758;28;20021;-66
2021/10/22 09:09:47;;;;;;;17.75;2.30;;;;;;;;;;5073164;28;20020;-65
2021/10/22 09:12:12;;;;;;;9.48;1.88;;;;;;;;;;5075807;28;22045;-67
2021/10/22 09:14:39;;;;;;;11.07;2.13;;;;;;;;;;5072886;28;20096;-67
2021/10/22 09:17:08;;;;;;;18.38;2.40;;;;;;;;;;5085458;28;20046;-66
2021/10/22 09:19:36;;;;;;;11.82;2.33;;;;;;;;;;5092913;28;20052;-66
2021/10/22 09:22:19;;;;;;;10.95;1.77;;;;;;;;;;5078708;28;20027;-67
2021/10/22 09:24:55;;;;;;;16.60;2.20;;;;;;;;;;5091906;28;20020;-66
2021/10/22 09:27:36;;;;;;;10.15;1.95;;;;;;;;;;5078372;28;20030;-66
2021/10/22 09:30:02;;;;;;;9.20;1.95;;;;;;;;;;5071693;28;20024;-67
2021/10/22 09:32:29;;;;;;;6.32;2.20;;;;;;;;;;5072166;28;20016;-64
2021/10/22 09:34:55;;;;;;;10.40;1.67;;;;;;;;;;5072434;28;20465;-66
2021/10/22 09:37:20;;;;;;;14.40;2.25;;;;;;;;;;5065329;28;20028;-65
2021/10/22 09:39:45;;;;;;;6.05;1.45;;;;;;;;;;5052568;28;20025;-68
2021/10/22 09:42:11;;;;;;;6.47;1.92;;;;;;;;;;5075126;28;20353;-65
2021/10/22 09:44:41;;;;;;;12.63;1.98;;;;;;;;;;5082339;28;20070;-66
2021/10/22 09:47:06;;;;;;;13.90;2.20;;;;;;;;;;5073374;28;20472;-65
2021/10/22 09:49:35;;;;;;;18.52;2.08;;;;;;;;;;5079663;28;20111;-66
2021/10/22 09:52:01;;;;;;;13.45;3.15;;;;;;;;;;5073960;28;20019;-67
2021/10/22 09:54:30;;;;;;;18.13;3.47;;;;;;;;;;5072853;28;20107;-66
2021/10/22 09:56:59;;;;;;;15.43;1.95;;;;;;;;;;5075531;28;20063;-65
2021/10/22 09:59:27;;;;;;;17.48;4.05;;;;;;;;;;5072140;28;20017;-64
2021/10/22 10:01:55;;;;;;;15.05;2.33;;;;;;;;;;5077376;28;20028;-65
2021/10/22 10:04:21;;;;;;;18.13;2.58;;;;;;;;;;5075585;28;20020;-67
2021/10/22 10:06:46;;;;;;;22.17;3.70;;;;;;;;;;5085887;28;20020;-67
2021/10/22 10:09:12;;;;;;;10.88;1.75;;;;;;;;;;5077380;28;20357;-65
2021/10/22 10:11:39;;;;;;;20.70;2.67;;;;;;;;;;5074892;28;20082;-64
2021/10/22 10:14:04;;;;;;;16.15;2.15;;;;;;;;;;5071545;28;20043;-67
2021/10/22 10:16:30;;;;;;;17.08;2.20;;;;;;;;;;5070923;28;20016;-64
2021/10/22 10:19:06;;;;;;;11.88;3.05;;;;;;;;;;5071703;28;20017;-64
2021/10/22 10:21:43;;;;;;;13.73;2.80;;;;;;;;;;5082824;28;20388;-65
2021/10/22 10:24:09;;;;;;;21.10;1.95;;;;;;;;;;5083827;28;20373;-66
2021/10/22 10:26:35;;;;;;;10.38;2.25;;;;;;;;;;5075246;28;20021;-63
2021/10/22 10:29:03;;;;;;;8.77;1.95;;;;;;;;;;5070743;28;20031;-63
2021/10/22 10:31:35;;;;;;;17.65;2.20;;;;;;;;;;5052472;28;20044;-62
2021/10/22 10:34:19;;;;;;;13.10;1.83;;;;;;;;;;5056180;28;20537;-65
2021/10/22 10:36:48;;;;;;;24.15;2.10;;;;;;;;;;5071213;28;20024;-63
2021/10/22 10:39:14;;;;;;;22.98;2.10;;;;;;;;;;5071662;28;20079;-64
2021/10/22 10:41:40;;;;;;;9.73;1.75;;;;;;;;;;5073382;28;20431;-65
2021/10/22 10:44:24;;;;;;;17.95;2.42;;;;;;;;;;5086692;28;20075;-66
2021/10/22 10:46:49;;;;;;;17.00;2.55;;;;;;;;;;5071077;28;20074;-66
2021/10/22 10:49:33;;;;;;;25.15;2.05;;;;;;;;;;5076068;28;20012;-65
2021/10/22 10:51:58;;;;;;;21.67;2.33;;;;;;;;;;5091099;28;20024;-64
2021/10/22 10:54:27;;;;;;;7.55;1.90;;;;;;;;;;5071223;28;20533;-65
2021/10/22 10:56:52;;;;;;;6.53;1.52;;;;;;;;;;5074786;28;20538;-65
2021/10/22 10:59:37;;;;;;;11.63;1.37;;;;;;;;;;5070738;28;20021;-67
2021/10/22 11:02:02;;;;;;;9.25;1.10;;;;;;;;;;5066324;28;20270;-65
2021/10/22 11:04:47;;;;;;;7.53;1.73;;;;;;;;;;5070954;28;20469;-66
2021/10/22 11:07:30;;;;;;;10.10;1.90;;;;;;;;;;5050575;28;20065;-67
2021/10/22 11:09:57;;;;;;;13.52;2.38;;;;;;;;;;5068079;28;20469;-64
2021/10/22 11:12:22;;;;;;;21.05;2.65;;;;;;;;;;5082270;28;20024;-66
2021/10/22 11:14:57;;;;;;;10.13;2.30;;;;;;;;;;5074027;28;20107;-65
2021/10/22 11:17:26;;;;;;;8.48;2.38;;;;;;;;;;5074827;28;20327;-66
2021/10/22 11:19:52;;;;;;;10.43;1.83;;;;;;;;;;5080641;28;20024;-65
2021/10/22 11:22:20;;;;;;;11.32;2.03;;;;;;;;;;5078781;28;20024;-66
2021/10/22 11:24:45;;;;;;;11.27;2.00;;;;;;;;;;5070352;28;20034;-65
2021/10/22 11:27:12;;;;;;;15.57;1.88;;;;;;;;;;5077835;28;20383;-66
2021/10/22 11:29:38;;;;;;;8.85;1.95;;;;;;;;;;5074918;28;20013;-65
2021/10/22 11:32:10;;;;;;;7.40;1.85;;;;;;;;;;5072239;28;20024;-63
2021/10/22 11:34:37;;;;;;;11.00;2.05;;;;;;;;;;5072804;28;20029;-64
2021/10/22 11:37:09;;;;;;;11.25;1.40;;;;;;;;;;5070942;28;20483;-62
2021/10/22 11:39:36;;;;;;;13.05;1.77;;;;;;;;;;5071253;28;20119;-64
2021/10/22 11:42:22;;;;;;;9.00;1.90;;;;;;;;;;5070007;28;20058;-65
2021/10/22 11:44:49;;;;;;;8.05;1.90;;;;;;;;;;5084535;28;20027;-63
2021/10/22 11:47:15;;;;;;;6.95;1.27;;;;;;;;;;5068008;28;20017;-63
2021/10/22 11:49:42;;;;;;;5.30;1.75;;;;;;;;;;5050533;28;20457;-62
2021/10/22 11:52:09;;;;;;;10.88;1.83;;;;;;;;;;5082656;28;20024;-64
2021/10/22 11:54:35;;;;;;;10.60;2.13;;;;;;;;;;5092179;28;20016;-65
2021/10/22 11:57:17;;;;;;;13.32;2.75;;;;;;;;;;5077408;28;20043;-63
2021/10/22 11:59:47;;;;;;;10.48;2.38;;;;;;;;;;5096743;28;20020;-63
2021/10/22 12:02:13;;;;;;;5.25;1.17;;;;;;;;;;5089086;28;20031;-65
2021/10/22 12:04:39;;;;;;;6.78;1.88;;;;;;;;;;5077903;28;20420;-63
2021/10/22 12:07:06;;;;;;;15.37;2.67;;;;;;;;;;5076394;28;20149;-63
2021/10/22 12:09:32;;;;;;;8.60;2.10;;;;;;;;;;5076575;28;20273;-64
2021/10/22 12:12:08;;;;;;;12.63;2.53;;;;;;;;;;5091307;28;20024;-65
2021/10/22 12:14:47;;;;;;;12.30;2.85;;;;;;;;;;5095341;28;20376;-66
2021/10/22 12:17:13;;;;;;;9.02;1.75;;;;;;;;;;5073345;28;20034;-65
2021/10/22 12:19:39;;;;;;;16.30;3.13;;;;;;;;;;5064616;28;20024;-66
2021/10/22 12:22:05;;;;;;;15.35;3.53;;;;;;;;;;5073525;28;20103;-66
2021/10/22 12:24:37;;;;;;;8.57;1.83;;;;;;;;;;5057626;28;20112;-65
2021/10/22 12:27:04;;;;;;;9.30;2.78;;;;;;;;;;5072461;28;20020;-66
2021/10/22 12:29:43;;;;;;;10.65;2.63;;;;;;;;;;5073571;28;20039;-67
2021/10/22 12:32:08;;;;;;;10.63;3.05;;;;;;;;;;5065035;28;20020;-65
2021/10/22 12:34:35;;;;;;;13.35;2.28;;;;;;;;;;5074680;28;20070;-67
2021/10/22 12:37:13;;;;;;;8.77;2.00;;;;;;;;;;5075871;28;20048;-66
2021/10/22 12:39:43;;;;;;;14.88;2.58;;;;;;;;;;5076202;28;20024;-66
2021/10/22 12:42:21;;;;;;;13.98;3.03;;;;;;;;;;5075781;28;20035;-67
2021/10/22 12:44:46;;;;;;;18.15;3.70;;;;;;;;;;5076199;28;20024;-67
2021/10/22 12:47:11;;;;;;;13.80;2.35;;;;;;;;;;5070561;28;20066;-66
2021/10/22 12:49:37;;;;;;;17.07;3.67;;;;;;;;;;5061413;28;20016;-65
2021/10/22 12:52:03;;;;;;;10.00;2.60;;;;;;;;;;5068993;28;20600;-65
2021/10/22 12:54:29;;;;;;;14.38;2.40;;;;;;;;;;5074160;28;20528;-65
2021/10/22 12:56:56;;;;;;;14.20;4.10;;;;;;;;;;5075805;28;20142;-65
2021/10/22 12:59:22;;;;;;;12.15;2.67;;;;;;;;;;5076236;28;20477;-66
2021/10/22 13:01:48;;;;;;;12.98;3.30;;;;;;;;;;5058095;28;20035;-65
2021/10/22 13:04:18;;;;;;;11.73;2.33;;;;;;;;;;5077136;28;20372;-65
2021/10/22 13:06:51;;;;;;;12.07;2.55;;;;;;;;;;5079232;28;20054;-67
2021/10/22 13:12:19;;;;;;;16.92;2.45;;;;;;;;;;5072759;28;20090;-66
2021/10/22 13:22:27;;;;;;;8.57;1.83;;;;;;;;;;5072533;28;20059;-64
2021/10/22 13:24:54;;;;;;;10.85;2.65;;;;;;;;;;5074413;28;20052;-68
2021/10/22 13:27:23;;;;;;;7.60;1.92;;;;;;;;;;5072467;28;20013;-67
2021/10/22 13:29:52;;;;;;;15.40;2.20;;;;;;;;;;5069441;28;20411;-66
2021/10/22 13:32:17;;;;;;;14.03;2.60;;;;;;;;;;5070758;28;20071;-67
2021/10/22 13:34:42;;;;;;;11.88;2.70;;;;;;;;;;5063204;28;20024;-65
2021/10/22 13:37:08;;;;;;;14.02;1.95;;;;;;;;;;5052688;28;20115;-67
2021/10/22 13:39:33;;;;;;;18.90;2.22;;;;;;;;;;5054157;28;20034;-66
2021/10/22 13:41:58;;;;;;;21.30;2.28;;;;;;;;;;5072290;28;20051;-66
2021/10/22 13:44:24;;;;;;;15.27;2.70;;;;;;;;;;5067268;28;20051;-66
2021/10/22 13:46:49;;;;;;;9.40;2.17;;;;;;;;;;5067252;28;20044;-65
2021/10/22 13:49:15;;;;;;;9.27;2.17;;;;;;;;;;5061578;28;20028;-65
2021/10/22 13:51:40;;;;;;;12.57;2.58;;;;;;;;;;5071271;28;20024;-65
2021/10/22 13:54:05;;;;;;;15.88;2.92;;;;;;;;;;5055146;28;20013;-67
2021/10/22 13:56:31;;;;;;;14.68;2.70;;;;;;;;;;5052608;28;20021;-67
2021/10/22 13:58:56;;;;;;;16.83;2.20;;;;;;;;;;5071891;28;20105;-67
2021/10/22 14:01:21;;;;;;;11.55;2.85;;;;;;;;;;5071267;28;20342;-68
2021/10/22 14:03:46;;;;;;;10.75;3.00;;;;;;;;;;5065486;28;20469;-64
2021/10/22 14:06:12;;;;;;;9.43;2.37;;;;;;;;;;5069130;28;20389;-65
2021/10/22 14:08:37;;;;;;;9.73;1.90;;;;;;;;;;5064528;28;20290;-65
2021/10/22 14:11:09;;;;;;;12.52;2.38;;;;;;;;;;5071597;28;20020;-67
2021/10/22 14:13:41;;;;;;;11.63;2.15;;;;;;;;;;5070973;28;20274;-66
2021/10/22 14:29:24;;;;;;;10.23;3.03;;;;;;;;;;5061520;28;20028;-68
2021/10/22 14:31:49;;;;;;;10.57;2.35;;;;;;;;;;5070656;28;20384;-67
2021/10/22 14:34:14;;;;;;;9.05;2.38;;;;;;;;;;5070963;28;20035;-68
2021/10/22 14:36:40;;;;;;;13.88;2.33;;;;;;;;;;5070611;28;20056;-68
2021/10/22 14:39:06;;;;;;;16.50;2.67;;;;;;;;;;5070078;28;20020;-68
2021/10/22 14:41:32;;;;;;;18.23;3.15;;;;;;;;;;5070692;28;20028;-64
2021/10/22 14:44:03;;;;;;;10.63;2.25;;;;;;;;;;5070734;28;20035;-65
2021/10/22 14:46:31;;;;;;;15.45;3.42;;;;;;;;;;5059844;28;20020;-65
2021/10/22 14:49:02;;;;;;;11.75;2.78;;;;;;;;;;5059821;28;20025;-68
2021/10/22 14:51:54;;;;;;;17.13;4.03;;;;;;;;;;5070720;28;20055;-68
2021/10/22 14:54:24;;;;;;;12.23;2.67;;;;;;;;;;5070668;28;20028;-66
2021/10/22 14:56:49;;;;;;;10.75;2.92;;;;;;;;;;5070676;28;20024;-68